Pinewood, Minnesota
Current Conditions -  °F | °C
As of 4:33 PM on Wednesday 22 Oct 2014 (Local Time) from KBJI Reporting Station
Clear Clear  
Wind Chill: 58°   Ceiling: Unl
Heat Index: 58°   Visibility: 10mi
Dew Point: 44°   Wind: 15mph
Humidity: 59%   Direction: 180°S
Pressure: 29.9"   Gusts: NA
Location:  47.4609°N, 95.2384°W
Report Text: KBJI 222133Z AUTO 18013KT 10SM CLR 15/07 A2990 RMK AO2 T01450065
Loading
Personal Weather Stations






























Interactive Weather Map
Tropical Storm Tracking
New forecast layout! Learn more

10-Day Weather Forecast

Advertisements
Track Severe Weather on mobile